Main page
METAR-TAF:

METAR-TAF

Airports :

Eveleth-Virginia Municipal Airport

Eveleth, Minnesota, United States

latitude: 47-24N, longitude: 092-30W, elevation: 421 m

Current weather observation

The report was made 33 minutes ago, at 04:55 UTC
Calm wind
Temperature -1°C
Humidity 80%
Pressure 1014 hPa
Visibility: 16.1 km
Clear sky

METAR: KEVM 220455Z AUTO 00000KT 10SM CLR M01/M04 A2994 RMK AO2 T10101040

Time: 00:28 (05:28 UTC)


TAF: missing

Weather observations and forecasts of more than 4000 airports (METAR and TAF reports).

The available stations are represented by yellow and red dots on the map.

Hover mouse over dot to see the name of the station.

Then click to see weather observations and forecasts.

To change the map : click on the green buttons with a black cross to zoom in, on the green button with a dash to zoom out, or on the green arrows for adjacent maps.


METAR-TAF: